Terminal Aerodrome Forecast
Issued by NWS Midland/Odessa, TX

Current Version | Previous Version | Text Only | Print | Product List | Glossary On
Versions: 1 2 3 4 5 6 7 8 9 10 11 12 13 14 15 16 17 18 19 20 21 22 23
000
FTUS44 KMAF 220100 AAA
TAFMAF
TAF AMD
KMAF 220157Z 2202/2224 15009KT P6SM SCT200
     FM220300 14007KT P6SM BKN030
     FM220700 15005KT 1SM BR OVC002
     FM221500 18005KT 6SM BR OVC015 PROB30 2215/2217 -TSRA OVC010CB
     FM221900 21008KT P6SM FEW030 BKN050=

USA.gov is the U.S. government's official web portal to all federal, state and local government web resources and services.